Time;durP1;ratioP1;P1;durP2;ratioP2;P2;SDS_P1;SDS_P2;PMS_P1;PMS_P2;Temp;Humidity;BMP_temperature;BMP_pressure;BME280_temperature;BME280_humidity;BME280_pressure;Samples;Min_cycle;Max_cycle;Signal;HPM_P1;HPM_P2
2022/12/31 00:00:37;;;;;;;0.43;0.25;;;;;;;7.50;100.00;97722.81;7395512;19;20018;-57
2022/12/31 00:03:05;;;;;;;0.15;0.15;;;;;;;7.31;100.00;97732.16;7397739;19;20011;-57
2022/12/31 00:05:34;;;;;;;8.77;1.27;;;;;;;7.27;100.00;97739.97;7395539;19;20011;-57
2022/12/31 00:08:01;;;;;;;3.50;0.57;;;;;;;7.29;100.00;97729.13;7397768;19;20010;-57
2022/12/31 00:10:28;;;;;;;10.52;0.98;;;;;;;7.28;100.00;97725.59;7404414;19;20042;-57
2022/12/31 00:12:55;;;;;;;10.15;0.40;;;;;;;7.24;100.00;97730.63;7403927;19;20033;-57
2022/12/31 00:15:21;;;;;;;0.20;0.20;;;;;;;7.20;100.00;97727.38;7401360;19;20458;-57
2022/12/31 00:17:49;;;;;;;2.78;0.68;;;;;;;7.21;100.00;97728.88;7403672;19;20667;-57
2022/12/31 00:20:15;;;;;;;3.97;0.50;;;;;;;7.22;100.00;97724.84;7400349;19;20022;-57
2022/12/31 00:22:41;;;;;;;0.52;0.35;;;;;;;7.23;100.00;97725.63;7402634;19;20014;-57
2022/12/31 00:25:08;;;;;;;6.40;1.55;;;;;;;7.24;100.00;97727.88;7402745;19;20006;-56
2022/12/31 00:27:34;;;;;;;0.98;0.22;;;;;;;7.26;100.00;97730.88;7402469;19;20010;-56
2022/12/31 00:30:00;;;;;;;0.63;0.63;;;;;;;7.49;100.00;97732.34;7403271;19;20011;-56
2022/12/31 00:32:27;;;;;;;3.42;0.93;;;;;;;8.03;100.00;97729.22;7400635;19;20018;-56
2022/12/31 00:34:53;;;;;;;0.65;0.35;;;;;;;7.98;100.00;97721.66;7398219;19;20002;-56
2022/12/31 00:37:19;;;;;;;0.00;0.00;;;;;;;7.94;100.00;97719.16;7403094;19;20024;-56
2022/12/31 00:39:45;;;;;;;0.80;0.38;;;;;;;7.94;100.00;97721.19;7397113;19;20033;-57
2022/12/31 00:42:11;;;;;;;0.10;0.10;;;;;;;7.88;100.00;97714.91;7399075;19;20018;-57
2022/12/31 00:44:38;;;;;;;0.30;0.30;;;;;;;8.45;100.00;97691.97;7398461;19;20047;-57
2022/12/31 00:47:04;;;;;;;0.30;0.30;;;;;;;8.64;100.00;97688.06;7398714;19;20007;-57
2022/12/31 00:49:30;;;;;;;0.20;0.10;;;;;;;8.54;100.00;97689.63;7398389;19;20018;-57
2022/12/31 00:51:56;;;;;;;0.57;0.22;;;;;;;8.39;100.00;97700.31;7397546;19;20336;-56
2022/12/31 00:54:22;;;;;;;1.20;0.35;;;;;;;8.31;100.00;97699.38;7396736;19;20014;-92
2022/12/31 00:56:48;;;;;;;0.10;0.10;;;;;;;8.22;100.00;97696.84;7398058;19;20017;-90
2022/12/31 00:59:14;;;;;;;0.38;0.10;;;;;;;8.18;100.00;97691.59;7398200;19;20007;-92
2022/12/31 01:01:41;;;;;;;2.58;0.98;;;;;;;8.16;100.00;97694.13;7399521;19;20371;-92
2022/12/31 01:04:13;;;;;;;0.88;0.25;;;;;;;8.20;100.00;97682.75;7404941;19;20007;-92
2022/12/31 01:06:40;;;;;;;0.10;0.10;;;;;;;8.22;100.00;97691.31;7400200;19;20028;-91
2022/12/31 01:09:07;;;;;;;3.20;0.20;;;;;;;8.15;100.00;97680.75;7404049;19;20018;-92
2022/12/31 01:11:33;;;;;;;0.30;0.30;;;;;;;8.16;100.00;97676.72;7399545;19;20090;-93
2022/12/31 01:14:12;;;;;;;3.30;1.08;;;;;;;8.10;100.00;97673.25;7403692;19;20014;-92
2022/12/31 01:16:50;;;;;;;11.60;0.90;;;;;;;8.06;100.00;97672.72;7399527;19;20026;-93
2022/12/31 01:19:23;;;;;;;0.10;0.10;;;;;;;8.00;100.00;97672.00;7398726;19;20034;-91
2022/12/31 01:21:50;;;;;;;0.10;0.00;;;;;;;7.95;100.00;97678.34;7398393;19;20098;-91
2022/12/31 01:24:17;;;;;;;2.90;0.57;;;;;;;7.91;100.00;97683.38;7399307;19;20400;-92
2022/12/31 01:26:44;;;;;;;9.80;0.32;;;;;;;7.87;100.00;97683.66;7405723;19;20396;-91
2022/12/31 01:29:12;;;;;;;1.00;0.10;;;;;;;7.92;100.00;97673.81;7399239;19;20011;-92
2022/12/31 01:31:39;;;;;;;3.58;0.68;;;;;;;7.96;100.00;97672.28;7398289;19;20382;-92
2022/12/31 01:34:06;;;;;;;1.15;0.32;;;;;;;8.03;100.00;97677.31;7402667;19;20019;-92
2022/12/31 01:36:34;;;;;;;3.40;0.90;;;;;;;8.05;100.00;97668.47;7399610;19;20400;-91
2022/12/31 01:39:04;;;;;;;0.03;0.00;;;;;;;8.07;100.00;97663.94;7399012;19;20600;-92
2022/12/31 01:41:33;;;;;;;0.00;0.00;;;;;;;8.03;100.00;97668.22;7398765;19;20015;-91
2022/12/31 01:44:21;;;;;;;1.10;0.43;;;;;;;8.10;100.00;97673.25;7402894;19;20018;-90
2022/12/31 01:46:52;;;;;;;0.10;0.10;;;;;;;8.11;100.00;97680.28;7398465;19;20013;-91
2022/12/31 01:49:39;;;;;;;1.60;0.57;;;;;;;8.21;100.00;97678.72;7399139;19;20007;-91
2022/12/31 01:52:13;;;;;;;0.98;0.45;;;;;;;8.16;100.00;97665.66;7397475;19;20027;-94
2022/12/31 01:54:43;;;;;;;0.25;0.10;;;;;;;8.21;100.00;97670.38;7397561;19;20017;-91
2022/12/31 01:57:10;;;;;;;5.85;0.52;;;;;;;8.25;100.00;97679.22;7399454;19;20018;-91
2022/12/31 01:59:37;;;;;;;13.63;0.28;;;;;;;8.26;100.00;97689.06;7398533;19;20018;-91
2022/12/31 02:02:04;;;;;;;0.73;0.25;;;;;;;8.27;100.00;97691.31;7398282;19;21640;-91
2022/12/31 02:04:30;;;;;;;0.20;0.20;;;;;;;8.32;100.00;97706.41;7398987;19;20021;-92
2022/12/31 02:07:01;;;;;;;0.20;0.20;;;;;;;8.32;100.00;97701.63;7397703;19;20014;-93
2022/12/31 02:09:29;;;;;;;0.00;0.00;;;;;;;8.30;100.00;97692.31;7396735;19;20480;-91
2022/12/31 02:11:55;;;;;;;0.00;0.00;;;;;;;8.25;100.00;97701.41;7395558;19;20014;-90
2022/12/31 02:14:34;;;;;;;1.55;0.63;;;;;;;8.21;100.00;97700.88;7395904;19;20081;-90
2022/12/31 02:17:21;;;;;;;1.55;0.45;;;;;;;8.19;100.00;97714.50;7396152;19;20036;-90
2022/12/31 02:20:12;;;;;;;0.57;0.40;;;;;;;8.15;100.00;97714.03;7396154;19;20018;-87
2022/12/31 02:22:56;;;;;;;0.30;0.30;;;;;;;8.13;100.00;97705.47;7395218;19;20038;-86
2022/12/31 02:25:41;;;;;;;0.63;0.10;;;;;;;8.07;100.00;97707.53;7404544;19;20078;-60
2022/12/31 02:28:23;;;;;;;0.50;0.40;;;;;;;8.08;100.00;97720.09;7393205;19;20033;-61
2022/12/31 02:30:57;;;;;;;0.10;0.10;;;;;;;8.07;100.00;97713.06;7391979;19;20010;-61
2022/12/31 02:33:37;;;;;;;2.85;0.25;;;;;;;8.04;100.00;97714.06;7395923;19;20017;-61
2022/12/31 02:36:11;;;;;;;0.57;0.20;;;;;;;7.90;100.00;97715.16;7392052;19;20014;-61
2022/12/31 02:38:41;;;;;;;0.10;0.00;;;;;;;7.92;100.00;97727.22;7396649;19;20469;-61
2022/12/31 02:44:20;;;;;;;0.73;0.47;;;;;;;7.85;100.00;97727.00;7399019;19;20267;-61
2022/12/31 02:47:01;;;;;;;0.00;0.00;;;;;;;7.86;100.00;97722.97;7399959;19;20017;-62
2022/12/31 02:49:49;;;;;;;0.10;0.10;;;;;;;7.84;100.00;97733.81;7395974;19;20014;-61
2022/12/31 02:52:40;;;;;;;0.00;0.00;;;;;;;7.85;100.00;97735.31;7396781;19;20010;-61
2022/12/31 02:55:19;;;;;;;0.10;0.10;;;;;;;7.86;100.00;97725.75;7394253;19;20018;-61
2022/12/31 02:58:15;;;;;;;0.30;0.20;;;;;;;7.89;100.00;97724.72;7394895;19;20044;-61
2022/12/31 03:03:36;;;;;;;3.65;0.47;;;;;;;7.91;100.00;97727.72;7396957;19;20030;-61
2022/12/31 03:06:04;;;;;;;0.20;0.20;;;;;;;7.92;100.00;97720.94;7394210;19;20007;-60
2022/12/31 03:08:30;;;;;;;0.30;0.30;;;;;;;8.35;100.00;97722.03;7397253;19;20040;-60
2022/12/31 03:10:57;;;;;;;4.10;0.60;;;;;;;8.51;100.00;97718.41;7394646;19;20014;-59
2022/12/31 03:13:23;;;;;;;0.00;0.00;;;;;;;8.08;100.00;97720.09;7398022;19;20011;-58
2022/12/31 03:15:49;;;;;;;0.20;0.20;;;;;;;8.05;100.00;97705.25;7392353;19;20031;-59
2022/12/31 03:22:26;;;;;;;0.20;0.20;;;;;;;8.07;100.00;97696.44;7392650;19;20482;-59
2022/12/31 03:26:40;;;;;;;0.00;0.00;;;;;;;8.04;100.00;97714.84;7397892;19;19921;-58
2022/12/31 03:29:06;;;;;;;0.73;0.20;;;;;;;8.05;100.00;97715.59;7393209;19;20047;-58
2022/12/31 03:31:33;;;;;;;0.10;0.10;;;;;;;8.06;100.00;97717.09;7391689;19;20515;-58
2022/12/31 03:33:59;;;;;;;0.20;0.17;;;;;;;8.05;100.00;97710.03;7396422;19;20018;-58
2022/12/31 03:36:25;;;;;;;0.38;0.30;;;;;;;8.05;100.00;97691.41;7392008;19;20053;-58
2022/12/31 03:38:52;;;;;;;0.00;0.00;;;;;;;8.07;100.00;97679.81;7394589;19;20021;-58
2022/12/31 03:41:18;;;;;;;0.40;0.13;;;;;;;8.08;100.00;97675.75;7392701;19;20024;-58
2022/12/31 03:43:44;;;;;;;0.22;0.10;;;;;;;8.11;100.00;97691.38;7393983;19;20088;-58
2022/12/31 03:46:10;;;;;;;0.57;0.32;;;;;;;8.12;100.00;97703.97;7393257;19;20335;-58
2022/12/31 03:48:37;;;;;;;1.60;0.32;;;;;;;8.13;100.00;97694.38;7391642;19;20018;-58
2022/12/31 03:51:04;;;;;;;2.05;0.10;;;;;;;8.13;100.00;97686.06;7392803;19;20021;-58
2022/12/31 03:53:30;;;;;;;1.00;0.47;;;;;;;8.12;100.00;97681.81;7394449;19;20011;-58
2022/12/31 03:55:57;;;;;;;0.17;0.10;;;;;;;8.16;100.00;97688.59;7391649;19;20049;-58
2022/12/31 03:58:23;;;;;;;0.35;0.15;;;;;;;8.15;100.00;97687.06;7391184;19;20450;-58
2022/12/31 04:00:49;;;;;;;1.33;0.85;;;;;;;8.09;100.00;97693.91;7391462;19;20018;-58
2022/12/31 04:03:15;;;;;;;4.00;0.50;;;;;;;8.08;100.00;97687.59;7394438;19;20011;-59
2022/12/31 04:05:42;;;;;;;0.00;0.00;;;;;;;8.22;100.00;97688.53;7393566;19;20025;-59
2022/12/31 04:08:08;;;;;;;0.10;0.00;;;;;;;8.13;100.00;97674.97;7395255;19;20038;-59
2022/12/31 04:10:34;;;;;;;15.60;0.77;;;;;;;8.23;100.00;97678.94;7390676;19;20011;-59
2022/12/31 04:13:03;;;;;;;0.00;0.00;;;;;;;8.23;100.00;97681.72;7395162;19;20007;-58
2022/12/31 04:15:29;;;;;;;0.10;0.10;;;;;;;8.26;100.00;97675.19;7389572;19;20011;-59
2022/12/31 04:17:55;;;;;;;4.07;0.45;;;;;;;8.31;100.00;97677.19;7391836;19;20007;-58
2022/12/31 04:20:21;;;;;;;0.00;0.00;;;;;;;8.37;100.00;97683.44;7393502;19;20044;-59
2022/12/31 04:22:48;;;;;;;1.58;0.20;;;;;;;8.37;100.00;97691.75;7393090;19;20371;-59
2022/12/31 04:25:14;;;;;;;3.80;1.10;;;;;;;8.38;100.00;97694.03;7392744;19;20010;-58
2022/12/31 04:27:42;;;;;;;0.30;0.30;;;;;;;8.38;100.00;97684.97;7390741;19;20007;-58
2022/12/31 04:30:10;;;;;;;0.10;0.00;;;;;;;8.39;100.00;97678.13;7391629;19;20038;-58
2022/12/31 04:32:36;;;;;;;0.10;0.10;;;;;;;8.37;100.00;97672.34;7391968;19;20015;-58
2022/12/31 04:35:02;;;;;;;0.00;0.00;;;;;;;8.35;100.00;97669.34;7391332;19;20018;-55
2022/12/31 04:37:29;;;;;;;0.75;0.40;;;;;;;8.30;100.00;97665.34;7391963;19;20019;-55
2022/12/31 04:39:55;;;;;;;0.00;0.00;;;;;;;8.37;100.00;97670.34;7392803;19;20003;-55
2022/12/31 04:42:21;;;;;;;0.00;0.00;;;;;;;8.67;100.00;97659.28;7393721;19;20501;-55
2022/12/31 04:44:47;;;;;;;0.00;0.00;;;;;;;8.72;100.00;97650.19;7391767;19;20019;-55
2022/12/31 04:47:13;;;;;;;0.10;0.00;;;;;;;8.71;100.00;97643.09;7391822;19;20011;-55
2022/12/31 04:49:39;;;;;;;1.65;0.32;;;;;;;8.72;100.00;97639.06;7390029;19;20022;-55
2022/12/31 04:52:06;;;;;;;0.25;0.10;;;;;;;8.69;100.00;97620.69;7391478;19;20375;-55
2022/12/31 04:54:32;;;;;;;3.25;0.68;;;;;;;8.68;100.00;97633.06;7397216;19;20478;-55
2022/12/31 04:56:58;;;;;;;0.00;0.00;;;;;;;8.61;100.00;97628.06;7397654;19;20482;-55
2022/12/31 04:59:24;;;;;;;7.68;0.20;;;;;;;8.58;100.00;97639.41;7397925;19;20026;-55
2022/12/31 05:01:50;;;;;;;0.80;0.65;;;;;;;8.22;100.00;97633.09;7397231;19;20015;-55
2022/12/31 05:04:16;;;;;;;0.30;0.30;;;;;;;8.13;100.00;97638.94;7396299;19;20014;-55
2022/12/31 05:06:43;;;;;;;0.03;0.03;;;;;;;8.13;100.00;97636.94;7396844;19;20023;-55
2022/12/31 05:09:09;;;;;;;0.75;0.40;;;;;;;8.10;100.00;97639.97;7402633;19;20340;-55
2022/12/31 05:11:36;;;;;;;0.20;0.20;;;;;;;8.06;100.00;97634.69;7397558;19;20014;-55
2022/12/31 05:14:02;;;;;;;1.95;0.20;;;;;;;8.19;100.00;97634.09;7401651;19;20015;-55
2022/12/31 05:16:29;;;;;;;1.20;0.73;;;;;;;8.06;100.00;97645.03;7396168;19;20018;-55
2022/12/31 05:18:55;;;;;;;0.10;0.00;;;;;;;7.92;100.00;97646.09;7397887;19;20102;-56
2022/12/31 05:21:21;;;;;;;0.82;0.25;;;;;;;7.88;100.00;97663.00;7396898;19;20066;-56
2022/12/31 05:23:48;;;;;;;0.70;0.50;;;;;;;7.87;100.00;97644.09;7401015;19;20014;-56
2022/12/31 05:26:15;;;;;;;0.35;0.20;;;;;;;7.87;100.00;97641.34;7398398;19;20030;-55
2022/12/31 05:28:41;;;;;;;0.10;0.00;;;;;;;7.88;100.00;97640.84;7396082;19;20065;-55
2022/12/31 05:31:07;;;;;;;0.88;0.30;;;;;;;7.92;100.00;97657.19;7394935;19;20011;-56
2022/12/31 05:33:33;;;;;;;0.55;0.20;;;;;;;7.91;100.00;97648.13;7400572;19;20768;-56
2022/12/31 05:35:59;;;;;;;0.03;0.00;;;;;;;7.93;100.00;97653.16;7393905;19;20019;-56
2022/12/31 05:38:26;;;;;;;0.80;0.47;;;;;;;7.92;100.00;97662.75;7399438;19;20497;-56
2022/12/31 05:41:12;;;;;;;0.10;0.10;;;;;;;7.87;100.00;97661.50;7395610;19;20011;-56
2022/12/31 05:43:38;;;;;;;0.00;0.00;;;;;;;7.89;100.00;97663.75;7399486;19;20344;-57
2022/12/31 05:46:04;;;;;;;0.38;0.20;;;;;;;7.89;100.00;97652.66;7394611;19;20014;-56
2022/12/31 05:48:31;;;;;;;1.30;0.22;;;;;;;7.89;100.00;97674.84;7397187;19;20015;-56
2022/12/31 05:50:57;;;;;;;0.30;0.10;;;;;;;7.91;100.00;97666.75;7395571;19;20007;-56
2022/12/31 05:53:23;;;;;;;2.78;0.20;;;;;;;7.92;100.00;97659.97;7397052;19;20007;-56
2022/12/31 05:55:50;;;;;;;0.10;0.10;;;;;;;7.92;100.00;97654.44;7393781;19;20019;-56
2022/12/31 05:58:16;;;;;;;0.10;0.10;;;;;;;7.93;100.00;97636.50;7395826;19;20094;-56
2022/12/31 06:00:43;;;;;;;0.10;0.05;;;;;;;7.93;100.00;97642.81;7396450;19;20367;-56
2022/12/31 06:03:09;;;;;;;0.00;0.00;;;;;;;7.92;100.00;97652.41;7399095;19;20014;-57
2022/12/31 06:05:38;;;;;;;0.52;0.20;;;;;;;7.91;100.00;97639.03;7395169;19;20013;-56
2022/12/31 06:08:05;;;;;;;0.10;0.00;;;;;;;7.92;100.00;97651.66;7398320;19;20070;-56
2022/12/31 06:10:31;;;;;;;0.10;0.00;;;;;;;7.92;100.00;97660.72;7394993;19;20017;-56
2022/12/31 06:12:57;;;;;;;0.10;0.00;;;;;;;7.89;100.00;97658.22;7398691;19;20039;-55
2022/12/31 06:15:23;;;;;;;0.08;0.03;;;;;;;7.90;100.00;97637.56;7393018;19;20007;-56
2022/12/31 06:17:49;;;;;;;0.10;0.00;;;;;;;7.93;100.00;97634.50;7395726;19;20025;-55
2022/12/31 06:20:16;;;;;;;0.00;0.00;;;;;;;7.93;100.00;97642.06;7396017;19;20011;-55
2022/12/31 06:22:42;;;;;;;0.13;0.13;;;;;;;7.95;100.00;97670.03;7396589;19;20078;-56
2022/12/31 06:25:08;;;;;;;1.17;0.28;;;;;;;7.98;100.00;97682.84;7396028;19;20070;-56
2022/12/31 06:27:35;;;;;;;0.90;0.43;;;;;;;7.98;100.00;97678.06;7395557;19;20014;-56
2022/12/31 06:30:01;;;;;;;0.32;0.20;;;;;;;8.00;100.00;97674.78;7394963;19;20014;-56
2022/12/31 06:32:27;;;;;;;0.30;0.20;;;;;;;8.03;100.00;97651.59;7395381;19;20100;-57
2022/12/31 06:34:53;;;;;;;0.80;0.17;;;;;;;8.05;100.00;97660.16;7394340;19;20095;-56
2022/12/31 06:37:19;;;;;;;0.10;0.08;;;;;;;8.07;100.00;97669.47;7395591;19;20011;-56
2022/12/31 06:39:45;;;;;;;0.10;0.00;;;;;;;8.04;100.00;97666.94;7395416;19;20065;-56
2022/12/31 06:42:13;;;;;;;3.72;0.17;;;;;;;8.03;100.00;97646.06;7396480;19;20022;-56
2022/12/31 06:44:39;;;;;;;0.10;0.00;;;;;;;8.03;100.00;97651.59;7393052;19;20078;-56
2022/12/31 06:47:05;;;;;;;0.20;0.10;;;;;;;7.99;100.00;97662.94;7393050;19;20388;-56
2022/12/31 06:49:31;;;;;;;1.27;0.63;;;;;;;7.97;100.00;97659.94;7397237;19;20379;-56
2022/12/31 06:51:58;;;;;;;0.10;0.10;;;;;;;7.98;100.00;97666.22;7395145;19;20471;-56
2022/12/31 06:54:24;;;;;;;0.08;0.08;;;;;;;7.98;100.00;97680.09;7392744;19;20010;-56
2022/12/31 06:56:51;;;;;;;0.20;0.10;;;;;;;7.99;100.00;97692.69;7394488;19;20466;-56
2022/12/31 06:59:26;;;;;;;0.10;0.10;;;;;;;7.97;100.00;97707.03;7395109;19;20019;-56
2022/12/31 07:02:04;;;;;;;1.13;0.05;;;;;;;7.97;100.00;97709.09;7394135;19;20084;-56
2022/12/31 07:04:42;;;;;;;0.08;0.08;;;;;;;7.98;100.00;97716.13;7394697;19;20018;-56
2022/12/31 07:07:31;;;;;;;0.10;0.00;;;;;;;7.98;100.00;97721.66;7394904;19;20035;-56
2022/12/31 07:10:30;;;;;;;0.85;0.47;;;;;;;7.96;100.00;97735.28;7394698;19;20022;-56
2022/12/31 07:13:14;;;;;;;0.22;0.10;;;;;;;7.96;100.00;97724.19;7395199;19;20010;-56
2022/12/31 07:16:08;;;;;;;3.03;0.35;;;;;;;7.96;100.00;97736.03;7392416;19;20006;-56
2022/12/31 07:18:55;;;;;;;1.30;0.32;;;;;;;7.95;100.00;97733.78;7394251;19;20027;-56
2022/12/31 07:21:36;;;;;;;0.28;0.10;;;;;;;7.93;100.00;97725.97;7394387;19;20015;-56
2022/12/31 07:24:05;;;;;;;0.68;0.43;;;;;;;7.93;100.00;97708.56;7397118;19;20010;-56
2022/12/31 07:27:13;;;;;;;9.95;0.85;;;;;;;7.96;100.00;97646.59;7397918;19;20014;-56
2022/12/31 07:29:50;;;;;;;0.85;0.35;;;;;;;7.93;100.00;97686.41;7392175;19;20388;-56
2022/12/31 07:32:41;;;;;;;0.35;0.10;;;;;;;7.94;100.00;97735.78;7393597;19;20026;-56
2022/12/31 07:35:10;;;;;;;0.13;0.10;;;;;;;7.98;100.00;97744.59;7390301;19;20029;-56
2022/12/31 07:38:04;;;;;;;0.30;0.28;;;;;;;7.98;100.00;97741.81;7393809;19;20018;-56
2022/12/31 07:40:42;;;;;;;0.10;0.00;;;;;;;7.97;100.00;97739.56;7391811;19;20332;-56
2022/12/31 07:43:33;;;;;;;0.10;0.10;;;;;;;7.95;100.00;97739.31;7395462;19;20015;-56
2022/12/31 07:46:17;;;;;;;0.15;0.05;;;;;;;7.91;100.00;97744.34;7393329;19;20018;-57
2022/12/31 07:48:44;;;;;;;0.63;0.10;;;;;;;7.87;100.00;97743.88;7391795;19;20027;-56
2022/12/31 07:51:11;;;;;;;0.73;0.15;;;;;;;7.85;100.00;97746.38;7391201;19;20445;-56
2022/12/31 07:53:38;;;;;;;1.33;0.10;;;;;;;7.82;100.00;97747.44;7395728;19;20034;-56
2022/12/31 07:56:07;;;;;;;0.47;0.10;;;;;;;7.76;100.00;97743.88;7394253;19;20428;-56
2022/12/31 07:58:39;;;;;;;0.80;0.10;;;;;;;7.74;100.00;97746.41;7392552;19;20494;-56
2022/12/31 08:01:15;;;;;;;0.50;0.30;;;;;;;7.72;100.00;97752.47;7392350;19;20766;-56
2022/12/31 08:04:02;;;;;;;0.10;0.00;;;;;;;7.88;100.00;97757.22;7395206;19;20039;-56
2022/12/31 08:06:38;;;;;;;0.10;0.10;;;;;;;7.88;100.00;97778.63;7395952;19;20018;-56
2022/12/31 08:09:07;;;;;;;0.10;0.10;;;;;;;7.91;100.00;97783.16;7395715;19;20014;-56
2022/12/31 08:11:53;;;;;;;0.25;0.17;;;;;;;7.91;100.00;97772.81;7394921;19;20030;-56
2022/12/31 08:14:20;;;;;;;8.77;0.52;;;;;;;7.88;100.00;97767.56;7395675;19;20472;-56
2022/12/31 08:16:46;;;;;;;0.43;0.15;;;;;;;7.85;100.00;97768.56;7395784;19;20017;-55
2022/12/31 08:19:23;;;;;;;4.03;0.38;;;;;;;7.82;100.00;97780.69;7396365;19;20011;-55
2022/12/31 08:22:16;;;;;;;0.32;0.10;;;;;;;7.81;100.00;97790.22;7395811;19;20011;-55
2022/12/31 08:24:49;;;;;;;0.52;0.20;;;;;;;7.82;100.00;97794.53;7394684;19;20356;-55
2022/12/31 08:27:37;;;;;;;0.00;0.00;;;;;;;7.82;100.00;97803.56;7393579;19;20340;-56
2022/12/31 08:30:12;;;;;;;0.20;0.20;;;;;;;7.83;100.00;97816.19;7397671;19;20019;-56
2022/12/31 08:32:45;;;;;;;0.10;0.08;;;;;;;7.86;100.00;97808.88;7402586;19;20023;-56
2022/12/31 08:35:22;;;;;;;1.35;0.10;;;;;;;8.29;100.00;97818.38;7401637;19;20034;-56
2022/12/31 08:38:11;;;;;;;0.30;0.10;;;;;;;8.15;100.00;97809.03;7402337;19;20014;-56
2022/12/31 08:40:48;;;;;;;1.90;0.50;;;;;;;8.00;100.00;97816.13;7399493;19;20010;-55
2022/12/31 08:43:23;;;;;;;0.55;0.25;;;;;;;7.97;100.00;97825.47;7401572;19;20493;-56
2022/12/31 08:45:53;;;;;;;0.22;0.22;;;;;;;8.04;100.00;97838.81;7399058;19;20018;-55
2022/12/31 08:48:31;;;;;;;3.30;0.20;;;;;;;8.08;100.00;97825.44;7400016;19;20043;-56
2022/12/31 08:50:58;;;;;;;0.10;0.10;;;;;;;8.25;100.00;97832.47;7398906;19;20507;-56
2022/12/31 08:53:25;;;;;;;0.10;0.10;;;;;;;8.53;100.00;97826.09;7400325;19;20507;-57
2022/12/31 08:56:49;;;;;;;0.25;0.25;;;;;;;8.23;100.00;97820.34;7395385;19;20015;-56
2022/12/31 08:59:28;;;;;;;1.75;0.10;;;;;;;8.29;100.00;97829.47;7394682;19;20351;-57
2022/12/31 09:01:57;;;;;;;0.10;0.00;;;;;;;8.53;100.00;97835.19;7397942;19;20019;-56
2022/12/31 09:04:43;;;;;;;1.13;0.20;;;;;;;8.34;100.00;97836.97;7398836;19;20030;-57
2022/12/31 09:07:11;;;;;;;0.13;0.05;;;;;;;8.64;100.00;97842.69;7397267;19;20074;-56
2022/12/31 09:10:02;;;;;;;0.10;0.10;;;;;;;8.69;100.00;97837.09;7398498;19;20070;-56
2022/12/31 09:12:34;;;;;;;;;;;;;;;8.61;100.00;97830.59;7399677;19;20006;-56
2022/12/31 09:15:00;;;;;;;0.60;0.20;;;;;;;8.73;100.00;97832.03;7396080;19;19931;-56
2022/12/31 09:17:45;;;;;;;1.45;0.30;;;;;;;8.78;100.00;97836.81;7397524;19;20478;-56
2022/12/31 09:20:21;;;;;;;0.13;0.13;;;;;;;8.83;100.00;97838.81;7397797;19;20011;-56
2022/12/31 09:22:48;;;;;;;3.78;0.32;;;;;;;8.89;100.00;97853.41;7399132;19;20030;-56
2022/12/31 09:25:16;;;;;;;0.00;0.00;;;;;;;8.93;100.00;97861.47;7398730;19;20017;-56
2022/12/31 09:27:52;;;;;;;2.30;0.25;;;;;;;8.95;100.00;97868.00;7396014;19;20019;-56
2022/12/31 09:30:18;;;;;;;4.03;0.40;;;;;;;8.99;100.00;97862.94;7397239;19;20026;-56
2022/12/31 09:32:47;;;;;;;0.00;0.00;;;;;;;9.05;100.00;97871.25;7395809;19;20324;-55
2022/12/31 09:35:35;;;;;;;0.10;0.10;;;;;;;9.08;100.00;97876.53;7393856;19;20721;-56
2022/12/31 09:38:10;;;;;;;0.00;0.00;;;;;;;9.07;100.00;97866.66;7396884;19;20006;-56
2022/12/31 09:40:46;;;;;;;0.10;0.10;;;;;;;9.07;100.00;97863.16;7393757;19;20018;-56
2022/12/31 09:43:44;;;;;;;0.17;0.10;;;;;;;9.08;100.00;97870.97;7397947;19;20014;-56
2022/12/31 09:46:22;;;;;;;0.08;0.08;;;;;;;9.14;100.00;97868.91;7396943;19;20007;-56
2022/12/31 09:48:57;;;;;;;0.17;0.08;;;;;;;9.12;100.00;97865.91;7391642;19;20077;-55
2022/12/31 09:51:34;;;;;;;0.52;0.30;;;;;;;9.13;100.00;97884.06;7391025;19;20334;-56
2022/12/31 09:54:25;;;;;;;0.13;0.03;;;;;;;9.14;100.00;97891.13;7400382;19;20015;-56
2022/12/31 09:57:28;;;;;;;0.05;0.05;;;;;;;8.85;100.00;97883.47;7394277;19;20103;-56
2022/12/31 10:00:16;;;;;;;0.63;0.40;;;;;;;8.93;100.00;97892.75;7393263;19;20006;-56
2022/12/31 10:02:58;;;;;;;0.20;0.10;;;;;;;9.06;100.00;97895.72;7394197;19;20028;-55
2022/12/31 10:05:30;;;;;;;0.05;0.05;;;;;;;9.09;100.00;97886.38;7394898;19;20343;-55
2022/12/31 10:08:05;;;;;;;0.20;0.20;;;;;;;8.97;100.00;97898.78;7396901;19;20529;-55
2022/12/31 10:10:37;;;;;;;0.50;0.50;;;;;;;8.92;100.00;97894.00;7393388;19;20095;-55
2022/12/31 10:13:25;;;;;;;0.10;0.10;;;;;;;9.13;100.00;97895.19;7397344;19;20018;-55
2022/12/31 10:16:12;;;;;;;0.30;0.10;;;;;;;9.07;100.00;97902.75;7394815;19;20015;-55
2022/12/31 10:18:48;;;;;;;0.52;0.20;;;;;;;8.84;100.00;97923.56;7397480;19;20044;-55
2022/12/31 10:21:42;;;;;;;2.97;0.22;;;;;;;8.85;100.00;97919.53;7395302;19;20078;-56
2022/12/31 10:24:11;;;;;;;2.10;0.10;;;;;;;9.03;100.00;97927.28;7399900;19;20011;-55
2022/12/31 10:26:46;;;;;;;3.38;0.52;;;;;;;9.14;100.00;97918.88;7399779;19;20021;-56
2022/12/31 10:29:39;;;;;;;0.55;0.20;;;;;;;9.22;100.00;97904.47;7392946;19;20013;-56
2022/12/31 10:32:42;;;;;;;0.10;0.10;;;;;;;9.28;100.00;97891.31;7395916;19;20021;-55
2022/12/31 10:35:15;;;;;;;1.00;0.57;;;;;;;9.40;100.00;97898.31;7393673;19;20018;-55
2022/12/31 10:37:45;;;;;;;0.80;0.15;;;;;;;9.47;100.00;97906.84;7395416;19;20014;-55
2022/12/31 10:40:24;;;;;;;0.10;0.05;;;;;;;9.55;100.00;97920.94;7393031;19;20019;-55
2022/12/31 10:43:07;;;;;;;0.30;0.10;;;;;;;9.60;100.00;97925.69;7396858;19;20018;-55
2022/12/31 10:45:59;;;;;;;0.80;0.52;;;;;;;9.73;100.00;97928.63;7392959;19;20066;-55
2022/12/31 10:48:50;;;;;;;1.73;0.47;;;;;;;9.89;100.00;97927.75;7398779;19;20033;-55
2022/12/31 10:51:55;;;;;;;0.70;0.70;;;;;;;10.04;100.00;97924.59;7393365;19;20019;-55
2022/12/31 10:54:42;;;;;;;7.90;1.55;;;;;;;10.16;100.00;97937.91;7389483;19;20010;-55
2022/12/31 10:57:50;;;;;;;10.90;1.38;;;;;;;9.93;100.00;97931.78;7390691;19;20011;-55
2022/12/31 11:00:26;;;;;;;9.18;1.73;;;;;;;9.92;100.00;97924.69;7394577;19;20328;-55
2022/12/31 11:03:24;;;;;;;15.52;3.15;;;;;;;10.13;100.00;97927.84;7394518;19;20014;-55
2022/12/31 11:06:10;;;;;;;7.57;2.45;;;;;;;10.37;100.00;97918.78;7395069;19;20021;-55
2022/12/31 11:08:45;;;;;;;2.28;1.38;;;;;;;10.44;100.00;97907.81;7396473;19;20038;-55
2022/12/31 11:11:42;;;;;;;0.55;0.17;;;;;;;10.48;100.00;97919.38;7392801;19;20034;-55
2022/12/31 11:14:24;;;;;;;0.90;0.57;;;;;;;10.52;100.00;97908.75;7398654;19;20022;-55
2022/12/31 11:17:08;;;;;;;;;;;;;;;10.56;100.00;97909.19;7392407;19;20025;-56
2022/12/31 11:19:46;;;;;;;4.22;2.03;;;;;;;10.55;100.00;97902.13;7392473;19;19915;-56
2022/12/31 11:22:31;;;;;;;2.28;0.80;;;;;;;10.74;100.00;97916.09;7395225;19;20006;-55
2022/12/31 11:25:10;;;;;;;5.90;0.80;;;;;;;10.84;100.00;97910.91;7392876;19;20034;-56
2022/12/31 11:28:14;;;;;;;1.65;0.73;;;;;;;10.81;100.00;97917.50;7394510;19;21095;-55
2022/12/31 11:31:02;;;;;;;4.45;0.95;;;;;;;10.99;100.00;97917.56;7393632;19;20470;-55
2022/12/31 11:33:55;;;;;;;2.30;1.08;;;;;;;11.03;100.00;97933.97;7395723;19;20018;-55
2022/12/31 11:37:08;;;;;;;1.25;0.55;;;;;;;11.20;100.00;97928.94;7390684;19;20415;-55
2022/12/31 11:40:13;;;;;;;1.13;0.38;;;;;;;11.16;100.00;97920.13;7396958;19;20011;-55
2022/12/31 11:43:18;;;;;;;0.15;0.08;;;;;;;11.07;100.00;97917.69;7392524;19;20021;-55
2022/12/31 11:46:13;;;;;;;1.13;0.52;;;;;;;11.06;100.00;97910.63;7393549;19;20015;-55
2022/12/31 11:48:48;;;;;;;0.43;0.30;;;;;;;11.03;100.00;97906.09;7391453;19;20028;-55
2022/12/31 11:51:45;;;;;;;1.08;0.40;;;;;;;10.98;100.00;97898.59;7392150;19;20510;-55
2022/12/31 11:54:28;;;;;;;2.40;0.57;;;;;;;10.95;100.00;97894.81;7398491;19;20038;-55
2022/12/31 11:57:22;;;;;;;0.17;0.17;;;;;;;10.93;100.00;97896.63;7391874;19;20078;-55
2022/12/31 11:59:55;;;;;;;1.10;0.28;;;;;;;10.91;100.00;97890.81;7390844;19;20022;-55
2022/12/31 12:02:31;;;;;;;1.30;0.50;;;;;;;10.59;100.00;97882.34;7392941;19;20494;-56
2022/12/31 12:05:00;;;;;;;3.55;0.93;;;;;;;10.76;100.00;97882.16;7396612;19;20074;-55
2022/12/31 12:07:29;;;;;;;0.73;0.30;;;;;;;10.86;100.00;97886.06;7400774;19;20018;-56
2022/12/31 12:10:00;;;;;;;0.20;0.10;;;;;;;10.87;100.00;97882.03;7398891;19;20025;-56
2022/12/31 12:12:38;;;;;;;0.40;0.25;;;;;;;10.86;100.00;97892.41;7402045;19;20010;-55
2022/12/31 12:15:26;;;;;;;0.35;0.20;;;;;;;10.85;100.00;97881.78;7397646;19;20023;-56